sensor_id;sensor_type;location;lat;lon;timestamp;temperature;humidity
41318;DHT22;27067;51.554;7.026;2022-09-25T00:00:31;18.50;97.70
41318;DHT22;27067;51.554;7.026;2022-09-25T00:02:57;18.60;97.70
41318;DHT22;27067;51.554;7.026;2022-09-25T00:05:23;18.60;97.70
41318;DHT22;27067;51.554;7.026;2022-09-25T00:07:48;18.50;97.60
41318;DHT22;27067;51.554;7.026;2022-09-25T00:10:13;18.50;97.60
41318;DHT22;27067;51.554;7.026;2022-09-25T00:12:39;18.60;97.70
41318;DHT22;27067;51.554;7.026;2022-09-25T00:15:06;18.60;97.70
41318;DHT22;27067;51.554;7.026;2022-09-25T00:17:32;18.50;97.70
41318;DHT22;27067;51.554;7.026;2022-09-25T00:19:58;18.50;97.80
41318;DHT22;27067;51.554;7.026;2022-09-25T00:22:23;18.50;97.80
41318;DHT22;27067;51.554;7.026;2022-09-25T00:24:49;18.50;98.10
41318;DHT22;27067;51.554;7.026;2022-09-25T00:27:15;18.50;97.90
41318;DHT22;27067;51.554;7.026;2022-09-25T00:29:41;19.40;98.00
41318;DHT22;27067;51.554;7.026;2022-09-25T00:32:07;18.60;97.80
41318;DHT22;27067;51.554;7.026;2022-09-25T00:34:33;18.50;97.80
41318;DHT22;27067;51.554;7.026;2022-09-25T00:36:58;18.60;97.80
41318;DHT22;27067;51.554;7.026;2022-09-25T00:39:24;18.50;97.80
41318;DHT22;27067;51.554;7.026;2022-09-25T00:41:50;18.60;97.80
41318;DHT22;27067;51.554;7.026;2022-09-25T00:47:00;18.60;97.70
41318;DHT22;27067;51.554;7.026;2022-09-25T00:49:26;18.60;97.80
41318;DHT22;27067;51.554;7.026;2022-09-25T00:51:52;18.50;97.70
41318;DHT22;27067;51.554;7.026;2022-09-25T00:54:26;18.50;97.70
41318;DHT22;27067;51.554;7.026;2022-09-25T00:56:52;18.50;97.70
41318;DHT22;27067;51.554;7.026;2022-09-25T00:59:24;18.50;97.70
41318;DHT22;27067;51.554;7.026;2022-09-25T01:01:51;18.50;97.70
41318;DHT22;27067;51.554;7.026;2022-09-25T01:04:17;18.50;97.70
41318;DHT22;27067;51.554;7.026;2022-09-25T01:06:44;18.50;97.70
41318;DHT22;27067;51.554;7.026;2022-09-25T01:09:09;18.50;97.70
41318;DHT22;27067;51.554;7.026;2022-09-25T01:11:35;18.60;97.70
41318;DHT22;27067;51.554;7.026;2022-09-25T01:14:02;18.50;97.70
41318;DHT22;27067;51.554;7.026;2022-09-25T01:31:38;18.50;97.70
41318;DHT22;27067;51.554;7.026;2022-09-25T01:34:25;18.50;97.70
41318;DHT22;27067;51.554;7.026;2022-09-25T01:36:57;18.50;97.70
41318;DHT22;27067;51.554;7.026;2022-09-25T01:39:30;18.50;97.80
41318;DHT22;27067;51.554;7.026;2022-09-25T01:41:59;18.50;97.70
41318;DHT22;27067;51.554;7.026;2022-09-25T01:44:28;18.50;97.80
41318;DHT22;27067;51.554;7.026;2022-09-25T01:46:54;18.50;97.70
41318;DHT22;27067;51.554;7.026;2022-09-25T01:49:24;18.50;97.90
41318;DHT22;27067;51.554;7.026;2022-09-25T01:51:51;18.50;98.10
41318;DHT22;27067;51.554;7.026;2022-09-25T01:54:19;18.50;98.40
41318;DHT22;27067;51.554;7.026;2022-09-25T01:59:16;18.50;98.20
41318;DHT22;27067;51.554;7.026;2022-09-25T02:01:43;18.50;98.10
41318;DHT22;27067;51.554;7.026;2022-09-25T02:04:19;18.50;98.10
41318;DHT22;27067;51.554;7.026;2022-09-25T02:06:48;18.50;98.10
41318;DHT22;27067;51.554;7.026;2022-09-25T02:09:20;18.50;98.10
41318;DHT22;27067;51.554;7.026;2022-09-25T02:11:47;18.50;98.00
41318;DHT22;27067;51.554;7.026;2022-09-25T02:14:34;18.50;98.00
41318;DHT22;27067;51.554;7.026;2022-09-25T02:17:01;18.50;98.00
41318;DHT22;27067;51.554;7.026;2022-09-25T02:19:28;18.50;98.00
41318;DHT22;27067;51.554;7.026;2022-09-25T02:22:19;18.50;98.00
41318;DHT22;27067;51.554;7.026;2022-09-25T02:24:47;18.40;98.00
41318;DHT22;27067;51.554;7.026;2022-09-25T02:27:15;18.40;98.00
41318;DHT22;27067;51.554;7.026;2022-09-25T02:29:42;18.50;98.00
41318;DHT22;27067;51.554;7.026;2022-09-25T02:32:08;18.40;98.00
41318;DHT22;27067;51.554;7.026;2022-09-25T02:34:34;18.40;97.90
41318;DHT22;27067;51.554;7.026;2022-09-25T02:37:00;18.40;97.90
41318;DHT22;27067;51.554;7.026;2022-09-25T02:39:27;18.40;97.90
41318;DHT22;27067;51.554;7.026;2022-09-25T02:50:21;18.40;97.90
41318;DHT22;27067;51.554;7.026;2022-09-25T02:52:34;18.40;98.00
41318;DHT22;27067;51.554;7.026;2022-09-25T02:55:03;18.40;98.00
41318;DHT22;27067;51.554;7.026;2022-09-25T03:00:00;18.40;98.00
41318;DHT22;27067;51.554;7.026;2022-09-25T03:02:28;18.50;98.10
41318;DHT22;27067;51.554;7.026;2022-09-25T03:04:54;18.40;98.20
41318;DHT22;27067;51.554;7.026;2022-09-25T03:07:20;18.50;98.20
41318;DHT22;27067;51.554;7.026;2022-09-25T03:09:47;18.50;98.20
41318;DHT22;27067;51.554;7.026;2022-09-25T03:12:13;18.40;98.10
41318;DHT22;27067;51.554;7.026;2022-09-25T03:14:39;18.40;98.10
41318;DHT22;27067;51.554;7.026;2022-09-25T03:17:05;18.40;98.10
41318;DHT22;27067;51.554;7.026;2022-09-25T03:19:31;18.40;98.10
41318;DHT22;27067;51.554;7.026;2022-09-25T03:21:57;18.40;98.10
41318;DHT22;27067;51.554;7.026;2022-09-25T03:24:23;18.40;98.10
41318;DHT22;27067;51.554;7.026;2022-09-25T03:26:48;18.40;98.30
41318;DHT22;27067;51.554;7.026;2022-09-25T03:29:14;18.40;98.00
41318;DHT22;27067;51.554;7.026;2022-09-25T03:31:41;18.40;98.10
41318;DHT22;27067;51.554;7.026;2022-09-25T03:34:10;18.40;98.00
41318;DHT22;27067;51.554;7.026;2022-09-25T03:36:36;18.40;98.00
41318;DHT22;27067;51.554;7.026;2022-09-25T03:39:02;18.40;98.00
41318;DHT22;27067;51.554;7.026;2022-09-25T03:41:31;18.40;98.00
41318;DHT22;27067;51.554;7.026;2022-09-25T03:43:57;18.40;97.90
41318;DHT22;27067;51.554;7.026;2022-09-25T03:46:24;18.40;98.00
41318;DHT22;27067;51.554;7.026;2022-09-25T03:48:50;18.40;98.00
41318;DHT22;27067;51.554;7.026;2022-09-25T03:51:16;18.40;98.00
41318;DHT22;27067;51.554;7.026;2022-09-25T03:53:42;18.40;97.90
41318;DHT22;27067;51.554;7.026;2022-09-25T03:56:11;18.40;97.90
41318;DHT22;27067;51.554;7.026;2022-09-25T03:58:37;18.40;97.90
41318;DHT22;27067;51.554;7.026;2022-09-25T04:01:03;18.40;97.90
41318;DHT22;27067;51.554;7.026;2022-09-25T04:03:29;18.40;97.90
41318;DHT22;27067;51.554;7.026;2022-09-25T04:05:55;18.40;97.90
41318;DHT22;27067;51.554;7.026;2022-09-25T04:08:22;18.40;97.90
41318;DHT22;27067;51.554;7.026;2022-09-25T04:10:54;18.40;97.90
41318;DHT22;27067;51.554;7.026;2022-09-25T04:13:21;18.40;98.00
41318;DHT22;27067;51.554;7.026;2022-09-25T04:15:47;18.40;98.00
41318;DHT22;27067;51.554;7.026;2022-09-25T04:18:13;18.40;98.00
41318;DHT22;27067;51.554;7.026;2022-09-25T04:20:38;18.40;98.00
41318;DHT22;27067;51.554;7.026;2022-09-25T04:23:04;18.40;98.00
41318;DHT22;27067;51.554;7.026;2022-09-25T04:25:29;18.40;97.80
41318;DHT22;27067;51.554;7.026;2022-09-25T04:27:55;18.40;97.70
41318;DHT22;27067;51.554;7.026;2022-09-25T04:30:22;18.40;97.70
41318;DHT22;27067;51.554;7.026;2022-09-25T04:32:48;18.30;97.60
41318;DHT22;27067;51.554;7.026;2022-09-25T04:35:32;18.30;97.50
41318;DHT22;27067;51.554;7.026;2022-09-25T04:37:57;18.30;97.50
41318;DHT22;27067;51.554;7.026;2022-09-25T04:40:24;18.30;97.60
41318;DHT22;27067;51.554;7.026;2022-09-25T04:42:54;18.30;97.60
41318;DHT22;27067;51.554;7.026;2022-09-25T04:45:19;18.30;97.90
41318;DHT22;27067;51.554;7.026;2022-09-25T04:47:45;18.20;98.10
41318;DHT22;27067;51.554;7.026;2022-09-25T04:50:10;18.30;98.20
41318;DHT22;27067;51.554;7.026;2022-09-25T04:52:36;18.30;98.20
41318;DHT22;27067;51.554;7.026;2022-09-25T04:55:01;18.30;98.00
41318;DHT22;27067;51.554;7.026;2022-09-25T04:57:28;18.40;97.90
41318;DHT22;27067;51.554;7.026;2022-09-25T04:59:53;18.40;97.70
41318;DHT22;27067;51.554;7.026;2022-09-25T05:02:19;18.50;97.50
41318;DHT22;27067;51.554;7.026;2022-09-25T05:04:44;18.50;97.40
41318;DHT22;27067;51.554;7.026;2022-09-25T05:07:10;18.60;97.20
41318;DHT22;27067;51.554;7.026;2022-09-25T05:09:35;18.60;97.00
41318;DHT22;27067;51.554;7.026;2022-09-25T05:12:01;18.60;96.90
41318;DHT22;27067;51.554;7.026;2022-09-25T05:14:26;18.60;97.00
41318;DHT22;27067;51.554;7.026;2022-09-25T05:16:52;18.60;96.60
41318;DHT22;27067;51.554;7.026;2022-09-25T05:19:17;18.70;96.50
41318;DHT22;27067;51.554;7.026;2022-09-25T05:21:43;18.70;96.50
41318;DHT22;27067;51.554;7.026;2022-09-25T05:24:09;18.70;96.40
41318;DHT22;27067;51.554;7.026;2022-09-25T05:26:35;18.70;96.30
41318;DHT22;27067;51.554;7.026;2022-09-25T05:29:01;18.70;96.30
41318;DHT22;27067;51.554;7.026;2022-09-25T05:31:27;18.70;96.30
41318;DHT22;27067;51.554;7.026;2022-09-25T05:33:53;18.70;96.20
41318;DHT22;27067;51.554;7.026;2022-09-25T05:36:19;18.70;96.20
41318;DHT22;27067;51.554;7.026;2022-09-25T05:38:44;18.70;96.10
41318;DHT22;27067;51.554;7.026;2022-09-25T05:41:10;18.60;96.10
41318;DHT22;27067;51.554;7.026;2022-09-25T05:43:39;18.70;96.10
41318;DHT22;27067;51.554;7.026;2022-09-25T05:46:05;18.60;96.10
41318;DHT22;27067;51.554;7.026;2022-09-25T05:48:31;18.60;96.10
41318;DHT22;27067;51.554;7.026;2022-09-25T05:50:56;18.60;96.10
41318;DHT22;27067;51.554;7.026;2022-09-25T05:53:22;18.60;96.20
41318;DHT22;27067;51.554;7.026;2022-09-25T05:55:51;18.60;96.20
41318;DHT22;27067;51.554;7.026;2022-09-25T05:58:17;18.60;96.30
41318;DHT22;27067;51.554;7.026;2022-09-25T06:00:43;18.50;96.40
41318;DHT22;27067;51.554;7.026;2022-09-25T06:03:08;18.50;96.40
41318;DHT22;27067;51.554;7.026;2022-09-25T06:05:34;18.40;96.30
41318;DHT22;27067;51.554;7.026;2022-09-25T06:08:00;18.40;96.30
41318;DHT22;27067;51.554;7.026;2022-09-25T06:10:26;18.40;96.20
41318;DHT22;27067;51.554;7.026;2022-09-25T06:12:54;18.40;97.20
41318;DHT22;27067;51.554;7.026;2022-09-25T06:15:23;18.40;98.20
41318;DHT22;27067;51.554;7.026;2022-09-25T06:17:50;18.40;98.70
41318;DHT22;27067;51.554;7.026;2022-09-25T06:20:15;18.40;98.20
41318;DHT22;27067;51.554;7.026;2022-09-25T06:22:41;18.40;98.00
41318;DHT22;27067;51.554;7.026;2022-09-25T06:25:08;18.40;98.20
41318;DHT22;27067;51.554;7.026;2022-09-25T06:27:35;18.50;98.20
41318;DHT22;27067;51.554;7.026;2022-09-25T06:30:01;18.40;98.70
41318;DHT22;27067;51.554;7.026;2022-09-25T06:32:26;18.40;98.40
41318;DHT22;27067;51.554;7.026;2022-09-25T06:34:52;18.40;98.30
41318;DHT22;27067;51.554;7.026;2022-09-25T06:37:17;18.40;98.10
41318;DHT22;27067;51.554;7.026;2022-09-25T06:39:43;18.40;98.00
41318;DHT22;27067;51.554;7.026;2022-09-25T06:42:08;18.40;97.90
41318;DHT22;27067;51.554;7.026;2022-09-25T06:44:34;18.30;97.80
41318;DHT22;27067;51.554;7.026;2022-09-25T06:46:59;18.30;97.70
41318;DHT22;27067;51.554;7.026;2022-09-25T06:49:26;18.30;97.70
41318;DHT22;27067;51.554;7.026;2022-09-25T06:51:51;18.30;97.60
41318;DHT22;27067;51.554;7.026;2022-09-25T06:54:17;18.30;98.00
41318;DHT22;27067;51.554;7.026;2022-09-25T06:56:43;18.30;97.90
41318;DHT22;27067;51.554;7.026;2022-09-25T06:59:08;18.30;97.90
41318;DHT22;27067;51.554;7.026;2022-09-25T07:01:34;18.30;97.70
41318;DHT22;27067;51.554;7.026;2022-09-25T07:03:59;18.30;97.70
41318;DHT22;27067;51.554;7.026;2022-09-25T07:06:26;18.30;97.60
41318;DHT22;27067;51.554;7.026;2022-09-25T07:08:52;18.30;97.50
41318;DHT22;27067;51.554;7.026;2022-09-25T07:11:18;18.30;97.80
41318;DHT22;27067;51.554;7.026;2022-09-25T07:13:44;18.30;97.70
41318;DHT22;27067;51.554;7.026;2022-09-25T07:16:11;18.30;97.50
41318;DHT22;27067;51.554;7.026;2022-09-25T07:18:37;18.30;97.50
41318;DHT22;27067;51.554;7.026;2022-09-25T07:21:36;18.30;97.50
41318;DHT22;27067;51.554;7.026;2022-09-25T07:23:56;18.30;97.60
41318;DHT22;27067;51.554;7.026;2022-09-25T07:26:27;18.30;97.70
41318;DHT22;27067;51.554;7.026;2022-09-25T07:29:02;18.30;97.70
41318;DHT22;27067;51.554;7.026;2022-09-25T07:31:29;18.30;98.50
41318;DHT22;27067;51.554;7.026;2022-09-25T07:33:59;18.30;98.80
41318;DHT22;27067;51.554;7.026;2022-09-25T07:36:27;18.30;98.70
41318;DHT22;27067;51.554;7.026;2022-09-25T07:38:53;18.30;98.60
41318;DHT22;27067;51.554;7.026;2022-09-25T07:41:19;18.30;98.60
41318;DHT22;27067;51.554;7.026;2022-09-25T07:43:49;18.30;98.50
41318;DHT22;27067;51.554;7.026;2022-09-25T07:46:16;18.30;98.40
41318;DHT22;27067;51.554;7.026;2022-09-25T07:48:41;18.30;98.40
41318;DHT22;27067;51.554;7.026;2022-09-25T07:51:07;18.30;98.40
41318;DHT22;27067;51.554;7.026;2022-09-25T07:53:34;18.20;98.30
41318;DHT22;27067;51.554;7.026;2022-09-25T07:55:59;18.20;98.20
41318;DHT22;27067;51.554;7.026;2022-09-25T07:58:25;18.20;98.20
41318;DHT22;27067;51.554;7.026;2022-09-25T08:00:57;18.20;98.20
41318;DHT22;27067;51.554;7.026;2022-09-25T08:03:23;18.20;98.20
41318;DHT22;27067;51.554;7.026;2022-09-25T08:05:56;18.20;98.20
41318;DHT22;27067;51.554;7.026;2022-09-25T08:08:21;18.30;98.20
41318;DHT22;27067;51.554;7.026;2022-09-25T08:10:46;18.20;98.20
41318;DHT22;27067;51.554;7.026;2022-09-25T08:13:12;18.50;98.30
41318;DHT22;27067;51.554;7.026;2022-09-25T08:15:38;17.70;98.00
41318;DHT22;27067;51.554;7.026;2022-09-25T08:18:05;18.20;98.10
41318;DHT22;27067;51.554;7.026;2022-09-25T08:20:30;18.20;98.10
41318;DHT22;27067;51.554;7.026;2022-09-25T08:22:55;18.20;98.10
41318;DHT22;27067;51.554;7.026;2022-09-25T08:25:21;18.20;98.10
41318;DHT22;27067;51.554;7.026;2022-09-25T08:27:47;18.20;98.10
41318;DHT22;27067;51.554;7.026;2022-09-25T08:30:12;18.20;98.10
41318;DHT22;27067;51.554;7.026;2022-09-25T08:32:38;18.20;98.10
41318;DHT22;27067;51.554;7.026;2022-09-25T08:35:03;18.20;98.10
41318;DHT22;27067;51.554;7.026;2022-09-25T08:37:29;18.20;98.00
41318;DHT22;27067;51.554;7.026;2022-09-25T08:39:57;18.20;98.00
41318;DHT22;27067;51.554;7.026;2022-09-25T08:42:28;18.20;98.00
41318;DHT22;27067;51.554;7.026;2022-09-25T08:44:55;18.20;98.00
41318;DHT22;27067;51.554;7.026;2022-09-25T08:47:39;18.20;98.00
41318;DHT22;27067;51.554;7.026;2022-09-25T08:50:24;18.20;97.90
41318;DHT22;27067;51.554;7.026;2022-09-25T08:52:57;18.20;97.80
41318;DHT22;27067;51.554;7.026;2022-09-25T08:55:30;18.20;97.70
41318;DHT22;27067;51.554;7.026;2022-09-25T08:58:18;18.20;97.70
41318;DHT22;27067;51.554;7.026;2022-09-25T09:00:45;18.20;97.60
41318;DHT22;27067;51.554;7.026;2022-09-25T09:03:11;18.20;97.50
41318;DHT22;27067;51.554;7.026;2022-09-25T09:05:38;18.20;97.50
41318;DHT22;27067;51.554;7.026;2022-09-25T09:08:06;18.10;97.40
41318;DHT22;27067;51.554;7.026;2022-09-25T09:10:39;18.10;97.40
41318;DHT22;27067;51.554;7.026;2022-09-25T09:16:26;18.20;97.40
41318;DHT22;27067;51.554;7.026;2022-09-25T09:18:30;18.10;97.30
41318;DHT22;27067;51.554;7.026;2022-09-25T09:26:11;18.10;97.20
41318;DHT22;27067;51.554;7.026;2022-09-25T09:31:12;18.10;97.30
41318;DHT22;27067;51.554;7.026;2022-09-25T09:36:36;18.20;97.00
41318;DHT22;27067;51.554;7.026;2022-09-25T09:42:02;18.20;97.00
41318;DHT22;27067;51.554;7.026;2022-09-25T09:47:31;18.10;97.00
41318;DHT22;27067;51.554;7.026;2022-09-25T09:50:26;18.10;97.00
41318;DHT22;27067;51.554;7.026;2022-09-25T09:52:50;18.10;97.00
41318;DHT22;27067;51.554;7.026;2022-09-25T09:57:43;18.20;97.00
41318;DHT22;27067;51.554;7.026;2022-09-25T10:00:13;18.20;97.00
41318;DHT22;27067;51.554;7.026;2022-09-25T10:05:19;18.20;97.00
41318;DHT22;27067;51.554;7.026;2022-09-25T10:07:47;18.20;97.00
41318;DHT22;27067;51.554;7.026;2022-09-25T10:10:15;18.20;97.00
41318;DHT22;27067;51.554;7.026;2022-09-25T10:12:48;18.10;97.00
41318;DHT22;27067;51.554;7.026;2022-09-25T10:15:18;18.20;97.10
41318;DHT22;27067;51.554;7.026;2022-09-25T10:17:45;18.20;97.20
41318;DHT22;27067;51.554;7.026;2022-09-25T10:20:16;18.20;97.20
41318;DHT22;27067;51.554;7.026;2022-09-25T10:22:44;18.20;97.20
41318;DHT22;27067;51.554;7.026;2022-09-25T10:25:10;18.20;97.20
41318;DHT22;27067;51.554;7.026;2022-09-25T10:27:37;18.20;97.10
41318;DHT22;27067;51.554;7.026;2022-09-25T10:30:11;18.20;97.10
41318;DHT22;27067;51.554;7.026;2022-09-25T10:35:12;18.20;97.10
41318;DHT22;27067;51.554;7.026;2022-09-25T10:37:38;18.20;97.00
41318;DHT22;27067;51.554;7.026;2022-09-25T10:40:05;18.20;97.00
41318;DHT22;27067;51.554;7.026;2022-09-25T10:42:33;18.20;97.00
41318;DHT22;27067;51.554;7.026;2022-09-25T10:45:05;18.20;96.90
41318;DHT22;27067;51.554;7.026;2022-09-25T10:47:39;18.20;96.80
41318;DHT22;27067;51.554;7.026;2022-09-25T10:50:25;18.20;96.70
41318;DHT22;27067;51.554;7.026;2022-09-25T10:52:56;18.20;96.60
41318;DHT22;27067;51.554;7.026;2022-09-25T10:55:27;18.20;96.50
41318;DHT22;27067;51.554;7.026;2022-09-25T11:00:23;18.20;96.40
41318;DHT22;27067;51.554;7.026;2022-09-25T11:02:50;18.20;96.40
41318;DHT22;27067;51.554;7.026;2022-09-25T11:05:22;18.20;96.40
41318;DHT22;27067;51.554;7.026;2022-09-25T11:07:50;18.20;96.40
41318;DHT22;27067;51.554;7.026;2022-09-25T11:10:20;18.20;96.40
41318;DHT22;27067;51.554;7.026;2022-09-25T11:12:46;18.20;96.40
41318;DHT22;27067;51.554;7.026;2022-09-25T11:15:15;18.20;96.40
41318;DHT22;27067;51.554;7.026;2022-09-25T11:17:42;19.30;96.70
41318;DHT22;27067;51.554;7.026;2022-09-25T11:22:42;18.20;96.50
41318;DHT22;27067;51.554;7.026;2022-09-25T11:25:13;18.30;96.50
41318;DHT22;27067;51.554;7.026;2022-09-25T11:30:12;18.20;96.50
41318;DHT22;27067;51.554;7.026;2022-09-25T11:40:32;18.20;96.60
41318;DHT22;27067;51.554;7.026;2022-09-25T11:43:20;18.20;96.60
41318;DHT22;27067;51.554;7.026;2022-09-25T11:45:53;18.30;96.60
41318;DHT22;27067;51.554;7.026;2022-09-25T11:48:25;18.30;96.60
41318;DHT22;27067;51.554;7.026;2022-09-25T12:03:45;18.30;96.90
41318;DHT22;27067;51.554;7.026;2022-09-25T12:16:26;18.30;96.80
41318;DHT22;27067;51.554;7.026;2022-09-25T12:37:16;18.30;97.00
41318;DHT22;27067;51.554;7.026;2022-09-25T12:39:49;18.20;97.00
41318;DHT22;27067;51.554;7.026;2022-09-25T12:47:16;18.20;96.90
41318;DHT22;27067;51.554;7.026;2022-09-25T12:49:45;18.20;96.90
41318;DHT22;27067;51.554;7.026;2022-09-25T12:52:15;18.30;96.90
41318;DHT22;27067;51.554;7.026;2022-09-25T12:54:46;18.30;96.80
41318;DHT22;27067;51.554;7.026;2022-09-25T12:57:24;18.30;96.80
41318;DHT22;27067;51.554;7.026;2022-09-25T12:59:55;18.30;96.80
41318;DHT22;27067;51.554;7.026;2022-09-25T13:02:33;18.30;96.80
41318;DHT22;27067;51.554;7.026;2022-09-25T13:05:22;18.30;96.80
41318;DHT22;27067;51.554;7.026;2022-09-25T13:12:57;18.30;96.70
41318;DHT22;27067;51.554;7.026;2022-09-25T13:15:29;18.30;96.70
41318;DHT22;27067;51.554;7.026;2022-09-25T13:17:56;18.30;96.70
41318;DHT22;27067;51.554;7.026;2022-09-25T13:23:15;18.30;96.70
41318;DHT22;27067;51.554;7.026;2022-09-25T13:25:42;18.40;96.70
41318;DHT22;27067;51.554;7.026;2022-09-25T13:28:13;18.30;96.60
41318;DHT22;27067;51.554;7.026;2022-09-25T13:30:43;18.30;96.60
41318;DHT22;27067;51.554;7.026;2022-09-25T13:33:21;18.40;96.60
41318;DHT22;27067;51.554;7.026;2022-09-25T13:35:47;18.40;96.50
41318;DHT22;27067;51.554;7.026;2022-09-25T13:38:15;18.40;96.50
41318;DHT22;27067;51.554;7.026;2022-09-25T13:41:08;18.30;96.50
41318;DHT22;27067;51.554;7.026;2022-09-25T13:43:34;18.40;96.50
41318;DHT22;27067;51.554;7.026;2022-09-25T13:48:48;18.40;96.40
41318;DHT22;27067;51.554;7.026;2022-09-25T13:53:48;18.40;96.30
41318;DHT22;27067;51.554;7.026;2022-09-25T13:56:15;18.40;96.30
41318;DHT22;27067;51.554;7.026;2022-09-25T13:58:59;18.40;96.30
41318;DHT22;27067;51.554;7.026;2022-09-25T14:01:36;18.40;96.30
41318;DHT22;27067;51.554;7.026;2022-09-25T14:06:34;18.30;96.30
41318;DHT22;27067;51.554;7.026;2022-09-25T14:09:22;18.40;96.40
41318;DHT22;27067;51.554;7.026;2022-09-25T14:14:45;18.40;96.70
41318;DHT22;27067;51.554;7.026;2022-09-25T14:17:16;18.40;96.50
41318;DHT22;27067;51.554;7.026;2022-09-25T14:19:43;18.40;96.50
41318;DHT22;27067;51.554;7.026;2022-09-25T14:22:14;18.40;96.50
41318;DHT22;27067;51.554;7.026;2022-09-25T14:24:42;18.40;96.50
41318;DHT22;27067;51.554;7.026;2022-09-25T14:27:15;18.40;96.40
41318;DHT22;27067;51.554;7.026;2022-09-25T14:29:43;18.50;96.40
41318;DHT22;27067;51.554;7.026;2022-09-25T14:45:59;18.40;96.40
41318;DHT22;27067;51.554;7.026;2022-09-25T14:48:46;18.40;96.30
41318;DHT22;27067;51.554;7.026;2022-09-25T14:51:32;18.40;96.30
41318;DHT22;27067;51.554;7.026;2022-09-25T14:54:02;18.40;96.40
41318;DHT22;27067;51.554;7.026;2022-09-25T14:56:28;18.40;96.40
41318;DHT22;27067;51.554;7.026;2022-09-25T14:58:59;18.50;96.40
41318;DHT22;27067;51.554;7.026;2022-09-25T15:01:30;18.40;96.40
41318;DHT22;27067;51.554;7.026;2022-09-25T15:04:04;18.50;96.50
41318;DHT22;27067;51.554;7.026;2022-09-25T15:06:31;18.50;96.50
41318;DHT22;27067;51.554;7.026;2022-09-25T15:08:57;18.50;96.50
41318;DHT22;27067;51.554;7.026;2022-09-25T15:11:24;18.50;96.50
41318;DHT22;27067;51.554;7.026;2022-09-25T15:13:52;18.50;96.40
41318;DHT22;27067;51.554;7.026;2022-09-25T15:16:24;18.50;96.40
41318;DHT22;27067;51.554;7.026;2022-09-25T15:19:17;18.60;96.50
41318;DHT22;27067;51.554;7.026;2022-09-25T15:21:44;18.60;96.40
41318;DHT22;27067;51.554;7.026;2022-09-25T15:24:12;18.50;96.50
41318;DHT22;27067;51.554;7.026;2022-09-25T15:26:39;18.60;96.50
41318;DHT22;27067;51.554;7.026;2022-09-25T15:29:13;18.50;96.60
41318;DHT22;27067;51.554;7.026;2022-09-25T15:31:42;18.60;96.50
41318;DHT22;27067;51.554;7.026;2022-09-25T15:34:12;18.50;96.40
41318;DHT22;27067;51.554;7.026;2022-09-25T15:36:38;18.50;96.50
41318;DHT22;27067;51.554;7.026;2022-09-25T15:39:13;18.50;96.40
41318;DHT22;27067;51.554;7.026;2022-09-25T15:41:43;18.60;96.50
41318;DHT22;27067;51.554;7.026;2022-09-25T15:44:13;18.50;96.50
41318;DHT22;27067;51.554;7.026;2022-09-25T15:46:42;18.50;96.50
41318;DHT22;27067;51.554;7.026;2022-09-25T15:49:11;18.50;96.50
41318;DHT22;27067;51.554;7.026;2022-09-25T15:51:38;18.50;96.50
41318;DHT22;27067;51.554;7.026;2022-09-25T15:56:50;18.60;96.50
41318;DHT22;27067;51.554;7.026;2022-09-25T15:59:27;18.60;96.60
41318;DHT22;27067;51.554;7.026;2022-09-25T16:01:54;18.60;96.60
41318;DHT22;27067;51.554;7.026;2022-09-25T16:04:38;18.60;96.50
41318;DHT22;27067;51.554;7.026;2022-09-25T16:07:30;18.60;96.50
41318;DHT22;27067;51.554;7.026;2022-09-25T16:10:25;18.60;96.50
41318;DHT22;27067;51.554;7.026;2022-09-25T16:12:50;18.60;96.50
41318;DHT22;27067;51.554;7.026;2022-09-25T16:17:51;18.60;96.50
41318;DHT22;27067;51.554;7.026;2022-09-25T16:22:49;18.60;96.50
41318;DHT22;27067;51.554;7.026;2022-09-25T16:25:21;18.60;96.50
41318;DHT22;27067;51.554;7.026;2022-09-25T16:27:48;18.60;96.50
41318;DHT22;27067;51.554;7.026;2022-09-25T16:30:18;18.60;96.50
41318;DHT22;27067;51.554;7.026;2022-09-25T16:32:45;18.50;96.50
41318;DHT22;27067;51.554;7.026;2022-09-25T16:35:18;18.50;96.50
41318;DHT22;27067;51.554;7.026;2022-09-25T16:37:45;18.50;96.50
41318;DHT22;27067;51.554;7.026;2022-09-25T16:42:43;18.60;96.50
41318;DHT22;27067;51.554;7.026;2022-09-25T16:47:34;18.50;96.40
41318;DHT22;27067;51.554;7.026;2022-09-25T16:49:59;18.50;96.40
41318;DHT22;27067;51.554;7.026;2022-09-25T16:52:25;18.60;96.40
41318;DHT22;27067;51.554;7.026;2022-09-25T16:54:53;18.60;96.30
41318;DHT22;27067;51.554;7.026;2022-09-25T16:57:22;18.60;96.30
41318;DHT22;27067;51.554;7.026;2022-09-25T16:59:48;18.50;96.30
41318;DHT22;27067;51.554;7.026;2022-09-25T17:02:23;18.60;96.30
41318;DHT22;27067;51.554;7.026;2022-09-25T17:04:49;18.60;96.30
41318;DHT22;27067;51.554;7.026;2022-09-25T17:07:15;18.60;96.30
41318;DHT22;27067;51.554;7.026;2022-09-25T17:09:40;18.60;96.30
41318;DHT22;27067;51.554;7.026;2022-09-25T17:12:08;18.60;96.30
41318;DHT22;27067;51.554;7.026;2022-09-25T17:14:34;18.60;96.30
41318;DHT22;27067;51.554;7.026;2022-09-25T17:17:00;18.60;96.30
41318;DHT22;27067;51.554;7.026;2022-09-25T17:19:26;18.50;96.30
41318;DHT22;27067;51.554;7.026;2022-09-25T17:21:51;18.60;96.40
41318;DHT22;27067;51.554;7.026;2022-09-25T17:24:18;18.60;96.40
41318;DHT22;27067;51.554;7.026;2022-09-25T17:26:44;17.70;96.10
41318;DHT22;27067;51.554;7.026;2022-09-25T17:29:11;18.60;96.30
41318;DHT22;27067;51.554;7.026;2022-09-25T17:31:37;18.50;96.30
41318;DHT22;27067;51.554;7.026;2022-09-25T17:34:23;18.60;96.30
41318;DHT22;27067;51.554;7.026;2022-09-25T17:36:53;18.60;96.30
41318;DHT22;27067;51.554;7.026;2022-09-25T17:39:19;18.50;96.20
41318;DHT22;27067;51.554;7.026;2022-09-25T17:41:45;18.60;96.20
41318;DHT22;27067;51.554;7.026;2022-09-25T17:44:11;18.50;96.20
41318;DHT22;27067;51.554;7.026;2022-09-25T17:46:37;18.50;96.10
41318;DHT22;27067;51.554;7.026;2022-09-25T17:49:03;18.50;96.10
41318;DHT22;27067;51.554;7.026;2022-09-25T17:51:29;18.60;96.10
41318;DHT22;27067;51.554;7.026;2022-09-25T17:53:55;18.60;96.10
41318;DHT22;27067;51.554;7.026;2022-09-25T17:56:21;18.50;96.10
41318;DHT22;27067;51.554;7.026;2022-09-25T17:58:47;18.50;96.10
41318;DHT22;27067;51.554;7.026;2022-09-25T18:01:13;18.60;96.10
41318;DHT22;27067;51.554;7.026;2022-09-25T18:03:39;18.60;96.40
41318;DHT22;27067;51.554;7.026;2022-09-25T18:06:05;18.60;96.70
41318;DHT22;27067;51.554;7.026;2022-09-25T18:08:30;18.60;96.60
41318;DHT22;27067;51.554;7.026;2022-09-25T18:10:56;18.60;96.70
41318;DHT22;27067;51.554;7.026;2022-09-25T18:13:23;18.60;96.90
41318;DHT22;27067;51.554;7.026;2022-09-25T18:15:50;18.60;96.90
41318;DHT22;27067;51.554;7.026;2022-09-25T18:18:17;18.60;97.00
41318;DHT22;27067;51.554;7.026;2022-09-25T18:20:42;18.70;97.00
41318;DHT22;27067;51.554;7.026;2022-09-25T18:23:27;18.10;96.90